Terminal Aerodrome Forecast
Issued by NWS

Home | Current Version | Previous Version | Text Only | Print | Product List | Glossary On
Versions: 1 2 3 4 5 6 7 8 9 10 11 12 13 14 15 16
704
FTUS42 KGSP 042333
TAFAND
TAF
KAND 042333Z 0500/0524 23011KT P6SM BKN080
     FM050600 27007KT P6SM SCT080 BKN250
     FM051300 29011KT P6SM SCT060 BKN120
     FM051700 29015G23KT P6SM BKN060 PROB30 0517/0523 4SM -SHRA
      BKN045=

USA.gov is the U.S. government's official web portal to all federal, state and local government web resources and services.